Meteo Giornale » Osservazioni meteo Stati Uniti (USA) » Enid-Woodring
ore: 15:46 - Osservazioni Meteo Enid-Woodring
Lat. 36° 23' N Lon. 97° 47' W Alt. 356 metri s.l.m.
40 °C
Nuvoloso
Temp. 24 Ore
21 °C
41 °C
Sud
18.5 Km/h
Dew point 16 °C
Umidità 24 %
Visibilità 10 Km
Il sole sorge alle ore 07:02
Il sole tramonta alle ore 20:00
| Data e Ora | Cielo e Fenomeni | T °C | DP °C | Um. % | Pres. hPa | Vis. km | Vento km/h | |
|---|---|---|---|---|---|---|---|---|
| Oggi h: 15:46 | Nuvoloso | 40 | 16 | 24 | 1013 | 10 | S 18.5 | |
| Oggi h: 14:50 | Nuvoloso | 41 | 15 | 21 | 1014 | 10 | S/SE 24 | |
| Oggi h: 13:47 | Nuvoloso | 39 | 16 | 26 | 1014 | 10 | S 25.9 | |
| Oggi h: 12:45 | Sereno | 38 | 16 | 27 | 1015 | 10 | S 25.9 | |
| Oggi h: 11:50 | Sereno | 37 | 18 | 32 | 1016 | 10 | S 25.9 | |
| Oggi h: 10:47 | Sereno | 35 | 17 | 34 | 1015 | 10 | S 20.3 | |
| Oggi h: 09:45 | Sereno | 32 | 17 | 40 | 1016 | 10 | S 29.6 | |
| Oggi h: 08:55 | Sereno | 29 | 16 | 45 | 1016 | 10 | S 18.5 | |
| Oggi h: 07:45 | Sereno | 23 | 16 | 64 | 1016 | 10 | S/SE 13 | |
| Oggi h: 06:45 | Sereno | 21 | 15 | 68 | 1015 | 10 | S/SE 9.3 | |
| Oggi h: 06:15 | Sereno | 22 | 15 | 64 | 1015 | 10 | N 5.5 | |
| Oggi h: 05:55 | Sereno | 21 | 16 | 73 | 1014 | 10 | N 0 | |
| Oggi h: 05:35 | Sereno | 22 | 16 | 68 | 1014 | 10 | N 0 | |
| Oggi h: 05:15 | Sereno | 21 | 16 | 73 | 1014 | 10 | N 5.5 | |
| Oggi h: 04:55 | Sereno | 22 | 16 | 68 | 1014 | 10 | S 7.4 | |
| Oggi h: 04:35 | Sereno | 22 | 16 | 68 | 1014 | 10 | S 11.1 | |
| Oggi h: 04:15 | Sereno | 22 | 16 | 68 | 1013 | 10 | S 11.1 | |
| Oggi h: 03:55 | Sereno | 23 | 16 | 64 | 1013 | 10 | S 11.1 | |
| Oggi h: 03:35 | Sereno | 23 | 15 | 60 | 1013 | 10 | S 9.3 | |
| Oggi h: 03:15 | Sereno | 24 | 16 | 60 | 1013 | 10 | N 5.5 | |
| Oggi h: 02:55 | Sereno | 24 | 16 | 60 | 1013 | 10 | S 7.4 | |
| Oggi h: 02:35 | Sereno | 25 | 16 | 57 | 1013 | 10 | S 9.3 | |
| Oggi h: 02:15 | Sereno | 25 | 16 | 57 | 1013 | 10 | S 7.4 | |
| Oggi h: 01:55 | Sereno | 26 | 16 | 54 | 1013 | 10 | S 7.4 | |
| Oggi h: 01:35 | Sereno | 27 | 16 | 50 | 1013 | 10 | S 9.3 | |
| Oggi h: 01:15 | Sereno | 27 | 16 | 50 | 1013 | 10 | S/SE 13 | |
| Oggi h: 00:55 | Sereno | 27 | 16 | 50 | 1013 | 10 | S 11.1 | |
| Oggi h: 00:35 | Sereno | 27 | 16 | 50 | 1012 | 10 | S/SE 13 | |
| Oggi h: 00:15 | Sereno | 28 | 16 | 48 | 1012 | 10 | S 13 | |
| Ieri h: 23:55 | Sereno | 27 | 16 | 50 | 1012 | 10 | S 13 | |
| Ieri h: 23:35 | Sereno | 27 | 16 | 50 | 1012 | 10 | S/SE 13 | |
| Ieri h: 23:15 | Sereno | 28 | 16 | 48 | 1012 | 10 | S/SE 13 | |
| Ieri h: 22:55 | Sereno | 28 | 15 | 45 | 1012 | 10 | S/SE 13 | |
| Ieri h: 22:35 | Sereno | 27 | 15 | 47 | 1012 | 10 | SE 13 | |
| Ieri h: 22:15 | Sereno | 28 | 15 | 45 | 1012 | 10 | E 11.1 | |
| Ieri h: 21:55 | Sereno | 28 | 15 | 45 | 1011 | 10 | SE 11.1 | |
| Ieri h: 21:35 | Sereno | 28 | 15 | 45 | 1011 | 10 | S/SE 9.3 | |
| Ieri h: 21:15 | Sereno | 29 | 15 | 42 | 1011 | 10 | S/SE 11.1 | |
| Ieri h: 20:55 | Poco Nuvoloso | 29 | 15 | 42 | 1011 | 10 | S/SE 14.8 | |
| Ieri h: 19:50 | Poco Nuvoloso | 35 | 15 | 30 | 1010 | 10 | S 16.7 | |
| Ieri h: 18:50 | Poco Nuvoloso | 39 | 15 | 24 | 1010 | 10 | S 29.6 | |
| Ieri h: 17:59 | Sereno | 40 | 15 | 23 | 1010 | 10 | S 25.9 | |



